sensor_id;sensor_type;location;lat;lon;timestamp;pressure;altitude;pressure_sealevel;temperature;humidity
8581;BME280;4328;48.622;9.230;2024-03-06T00:02:04;98025.22;;;5.74;100.00
8581;BME280;4328;48.622;9.230;2024-03-06T00:04:31;98031.59;;;5.73;100.00
8581;BME280;4328;48.622;9.230;2024-03-06T00:06:58;98035.59;;;5.69;100.00
8581;BME280;4328;48.622;9.230;2024-03-06T00:09:25;98038.44;;;5.67;100.00
8581;BME280;4328;48.622;9.230;2024-03-06T00:11:52;98033.69;;;5.61;100.00
8581;BME280;4328;48.622;9.230;2024-03-06T00:14:20;98021.22;;;5.52;100.00
8581;BME280;4328;48.622;9.230;2024-03-06T00:16:48;98040.22;;;5.59;100.00
8581;BME280;4328;48.622;9.230;2024-03-06T00:19:15;98047.31;;;5.60;100.00
8581;BME280;4328;48.622;9.230;2024-03-06T00:21:42;98040.94;;;5.61;100.00
8581;BME280;4328;48.622;9.230;2024-03-06T00:24:09;98046.16;;;5.62;100.00
8581;BME280;4328;48.622;9.230;2024-03-06T00:26:39;98037.25;;;5.62;100.00
8581;BME280;4328;48.622;9.230;2024-03-06T00:29:06;98042.78;;;5.60;100.00
8581;BME280;4328;48.622;9.230;2024-03-06T00:31:34;98036.38;;;5.61;100.00
8581;BME280;4328;48.622;9.230;2024-03-06T00:34:00;98036.94;;;5.65;100.00
8581;BME280;4328;48.622;9.230;2024-03-06T00:36:27;98036.09;;;5.64;100.00
8581;BME280;4328;48.622;9.230;2024-03-06T00:38:54;98035.53;;;5.61;100.00
8581;BME280;4328;48.622;9.230;2024-03-06T00:41:20;98035.53;;;5.61;100.00
8581;BME280;4328;48.622;9.230;2024-03-06T00:43:47;98037.34;;;5.52;100.00
8581;BME280;4328;48.622;9.230;2024-03-06T00:46:13;98039.50;;;5.49;100.00
8581;BME280;4328;48.622;9.230;2024-03-06T00:48:41;98039.66;;;5.47;100.00
8581;BME280;4328;48.622;9.230;2024-03-06T00:51:08;98043.28;;;5.38;100.00
8581;BME280;4328;48.622;9.230;2024-03-06T00:53:34;98047.63;;;5.31;100.00
8581;BME280;4328;48.622;9.230;2024-03-06T00:56:02;98046.53;;;5.24;100.00
8581;BME280;4328;48.622;9.230;2024-03-06T00:58:28;98042.94;;;5.15;100.00
8581;BME280;4328;48.622;9.230;2024-03-06T01:00:55;98043.09;;;5.14;100.00
8581;BME280;4328;48.622;9.230;2024-03-06T01:03:23;98044.09;;;5.13;100.00
8581;BME280;4328;48.622;9.230;2024-03-06T01:05:51;98040.41;;;5.14;100.00
8581;BME280;4328;48.622;9.230;2024-03-06T01:08:18;98045.09;;;5.12;100.00
8581;BME280;4328;48.622;9.230;2024-03-06T01:10:45;98043.09;;;5.14;100.00
8581;BME280;4328;48.622;9.230;2024-03-06T01:13:11;98012.72;;;4.95;100.00
8581;BME280;4328;48.622;9.230;2024-03-06T01:15:38;98039.72;;;5.12;100.00
8581;BME280;4328;48.622;9.230;2024-03-06T01:18:05;98049.00;;;5.17;100.00
8581;BME280;4328;48.622;9.230;2024-03-06T01:20:31;98045.63;;;5.15;100.00
8581;BME280;4328;48.622;9.230;2024-03-06T01:22:59;98036.34;;;5.09;100.00
8581;BME280;4328;48.622;9.230;2024-03-06T01:25:26;98033.28;;;5.04;100.00
8581;BME280;4328;48.622;9.230;2024-03-06T01:27:52;98041.94;;;4.98;100.00
8581;BME280;4328;48.622;9.230;2024-03-06T01:30:19;98049.31;;;4.96;100.00
8581;BME280;4328;48.622;9.230;2024-03-06T01:32:45;98039.75;;;4.94;100.00
8581;BME280;4328;48.622;9.230;2024-03-06T01:35:12;98043.41;;;4.93;100.00
8581;BME280;4328;48.622;9.230;2024-03-06T01:37:39;98051.63;;;4.91;100.00
8581;BME280;4328;48.622;9.230;2024-03-06T01:40:08;98045.16;;;4.84;100.00
8581;BME280;4328;48.622;9.230;2024-03-06T01:42:35;98054.56;;;4.80;100.00
8581;BME280;4328;48.622;9.230;2024-03-06T01:45:02;98047.09;;;4.74;100.00
8581;BME280;4328;48.622;9.230;2024-03-06T01:47:29;98051.75;;;4.72;100.00
8581;BME280;4328;48.622;9.230;2024-03-06T01:49:56;98050.41;;;4.68;100.00
8581;BME280;4328;48.622;9.230;2024-03-06T01:52:23;98056.22;;;4.63;100.00
8581;BME280;4328;48.622;9.230;2024-03-06T01:54:50;98054.53;;;4.62;100.00
8581;BME280;4328;48.622;9.230;2024-03-06T01:57:19;98059.59;;;4.65;100.00
8581;BME280;4328;48.622;9.230;2024-03-06T01:59:46;98053.38;;;4.65;100.00
8581;BME280;4328;48.622;9.230;2024-03-06T02:02:13;98049.41;;;4.69;100.00
8581;BME280;4328;48.622;9.230;2024-03-06T02:04:39;98054.44;;;4.72;100.00
8581;BME280;4328;48.622;9.230;2024-03-06T02:07:09;98054.16;;;4.75;100.00
8581;BME280;4328;48.622;9.230;2024-03-06T02:09:36;98053.44;;;4.73;100.00
8581;BME280;4328;48.622;9.230;2024-03-06T02:12:03;98057.84;;;4.74;100.00
8581;BME280;4328;48.622;9.230;2024-03-06T02:14:31;98047.41;;;4.71;100.00
8581;BME280;4328;48.622;9.230;2024-03-06T02:16:58;98048.78;;;4.75;100.00
8581;BME280;4328;48.622;9.230;2024-03-06T02:19:24;98038.88;;;4.76;100.00
8581;BME280;4328;48.622;9.230;2024-03-06T02:21:53;98040.28;;;4.80;100.00
8581;BME280;4328;48.622;9.230;2024-03-06T02:24:20;98039.72;;;4.76;100.00
8581;BME280;4328;48.622;9.230;2024-03-06T02:26:46;98042.03;;;4.71;100.00
8581;BME280;4328;48.622;9.230;2024-03-06T02:29:13;98038.25;;;4.64;100.00
8581;BME280;4328;48.622;9.230;2024-03-06T02:31:40;98044.47;;;4.64;100.00
8581;BME280;4328;48.622;9.230;2024-03-06T02:34:07;98049.28;;;4.61;100.00
8581;BME280;4328;48.622;9.230;2024-03-06T02:36:33;98047.53;;;4.52;100.00
8581;BME280;4328;48.622;9.230;2024-03-06T02:39:02;98055.59;;;4.52;100.00
8581;BME280;4328;48.622;9.230;2024-03-06T02:41:34;98052.91;;;4.52;100.00
8581;BME280;4328;48.622;9.230;2024-03-06T02:44:00;98057.81;;;4.56;100.00
8581;BME280;4328;48.622;9.230;2024-03-06T02:46:27;98006.25;;;4.35;100.00
8581;BME280;4328;48.622;9.230;2024-03-06T02:48:54;98056.47;;;4.70;100.00
8581;BME280;4328;48.622;9.230;2024-03-06T02:51:21;98060.16;;;4.69;100.00
8581;BME280;4328;48.622;9.230;2024-03-06T02:53:47;98032.97;;;4.54;100.00
8581;BME280;4328;48.622;9.230;2024-03-06T02:56:17;98056.97;;;4.73;100.00
8581;BME280;4328;48.622;9.230;2024-03-06T02:58:43;98062.91;;;4.77;100.00
8581;BME280;4328;48.622;9.230;2024-03-06T03:01:10;98060.22;;;4.77;100.00
8581;BME280;4328;48.622;9.230;2024-03-06T03:03:40;98060.63;;;4.82;100.00
8581;BME280;4328;48.622;9.230;2024-03-06T03:06:07;98060.63;;;4.82;100.00
8581;BME280;4328;48.622;9.230;2024-03-06T03:08:33;98060.47;;;4.84;100.00
8581;BME280;4328;48.622;9.230;2024-03-06T03:11:00;98055.91;;;4.84;100.00
8581;BME280;4328;48.622;9.230;2024-03-06T03:13:28;98061.97;;;4.86;100.00
8581;BME280;4328;48.622;9.230;2024-03-06T03:15:55;98063.16;;;4.84;100.00
8581;BME280;4328;48.622;9.230;2024-03-06T03:18:22;98051.56;;;4.83;100.00
8581;BME280;4328;48.622;9.230;2024-03-06T03:20:49;98062.31;;;4.83;100.00
8581;BME280;4328;48.622;9.230;2024-03-06T03:23:15;98061.28;;;4.84;100.00
8581;BME280;4328;48.622;9.230;2024-03-06T03:25:47;98055.63;;;4.87;100.00
8581;BME280;4328;48.622;9.230;2024-03-06T03:28:14;98065.66;;;4.85;100.00
8581;BME280;4328;48.622;9.230;2024-03-06T03:30:44;98066.50;;;4.86;100.00
8581;BME280;4328;48.622;9.230;2024-03-06T03:33:11;98062.13;;;4.85;100.00
8581;BME280;4328;48.622;9.230;2024-03-06T03:35:37;98071.03;;;4.85;100.00
8581;BME280;4328;48.622;9.230;2024-03-06T03:38:04;98075.88;;;4.82;100.00
8581;BME280;4328;48.622;9.230;2024-03-06T03:40:31;98081.25;;;4.82;100.00
8581;BME280;4328;48.622;9.230;2024-03-06T03:42:58;98075.75;;;4.83;100.00
8581;BME280;4328;48.622;9.230;2024-03-06T03:45:31;98067.34;;;4.86;100.00
8581;BME280;4328;48.622;9.230;2024-03-06T03:47:59;98077.50;;;4.92;100.00
8581;BME280;4328;48.622;9.230;2024-03-06T03:50:27;98068.81;;;4.81;100.00
8581;BME280;4328;48.622;9.230;2024-03-06T03:52:54;98069.34;;;4.84;100.00
8581;BME280;4328;48.622;9.230;2024-03-06T03:55:23;98078.78;;;4.88;100.00
8581;BME280;4328;48.622;9.230;2024-03-06T03:57:50;98073.06;;;4.83;100.00
8581;BME280;4328;48.622;9.230;2024-03-06T04:00:16;98086.00;;;4.88;100.00
8581;BME280;4328;48.622;9.230;2024-03-06T04:02:43;98085.72;;;4.91;100.00
8581;BME280;4328;48.622;9.230;2024-03-06T04:05:11;98084.56;;;4.93;100.00
8581;BME280;4328;48.622;9.230;2024-03-06T04:07:38;98087.16;;;4.85;100.00
8581;BME280;4328;48.622;9.230;2024-03-06T04:10:06;98081.13;;;4.83;100.00
8581;BME280;4328;48.622;9.230;2024-03-06T04:12:35;98073.44;;;4.70;100.00
8581;BME280;4328;48.622;9.230;2024-03-06T04:15:02;98090.84;;;4.84;100.00
8581;BME280;4328;48.622;9.230;2024-03-06T04:17:29;98093.38;;;4.86;100.00
8581;BME280;4328;48.622;9.230;2024-03-06T04:19:55;98087.09;;;4.77;100.00
8581;BME280;4328;48.622;9.230;2024-03-06T04:22:23;98087.47;;;4.82;100.00
8581;BME280;4328;48.622;9.230;2024-03-06T04:24:50;98094.69;;;4.82;100.00
8581;BME280;4328;48.622;9.230;2024-03-06T04:27:16;98095.69;;;4.81;100.00
8581;BME280;4328;48.622;9.230;2024-03-06T04:29:43;98095.22;;;4.85;100.00
8581;BME280;4328;48.622;9.230;2024-03-06T04:32:09;98098.44;;;4.89;100.00
8581;BME280;4328;48.622;9.230;2024-03-06T04:34:36;98104.38;;;4.92;100.00
8581;BME280;4328;48.622;9.230;2024-03-06T04:37:04;98104.38;;;4.92;100.00
8581;BME280;4328;48.622;9.230;2024-03-06T04:39:33;98103.75;;;4.98;100.00
8581;BME280;4328;48.622;9.230;2024-03-06T04:41:59;98111.72;;;4.90;100.00
8581;BME280;4328;48.622;9.230;2024-03-06T04:44:27;98121.34;;;4.93;100.00
8581;BME280;4328;48.622;9.230;2024-03-06T04:46:54;98124.41;;;4.98;100.00
8581;BME280;4328;48.622;9.230;2024-03-06T04:49:20;98120.72;;;4.99;100.00
8581;BME280;4328;48.622;9.230;2024-03-06T04:51:47;98124.09;;;5.01;100.00
8581;BME280;4328;48.622;9.230;2024-03-06T04:54:13;98119.88;;;4.98;100.00
8581;BME280;4328;48.622;9.230;2024-03-06T04:56:41;98125.09;;;5.00;100.00
8581;BME280;4328;48.622;9.230;2024-03-06T04:59:08;98123.31;;;4.91;100.00
8581;BME280;4328;48.622;9.230;2024-03-06T05:01:34;98125.88;;;4.92;100.00
8581;BME280;4328;48.622;9.230;2024-03-06T05:04:01;98138.31;;;4.93;100.00
8581;BME280;4328;48.622;9.230;2024-03-06T05:06:29;98136.75;;;4.91;100.00
8581;BME280;4328;48.622;9.230;2024-03-06T05:08:55;98126.47;;;4.86;100.00
8581;BME280;4328;48.622;9.230;2024-03-06T05:11:22;98138.03;;;4.87;100.00
8581;BME280;4328;48.622;9.230;2024-03-06T05:13:50;98134.66;;;4.85;100.00
8581;BME280;4328;48.622;9.230;2024-03-06T05:16:16;98133.28;;;4.81;100.00
8581;BME280;4328;48.622;9.230;2024-03-06T05:18:43;98134.84;;;4.83;100.00
8581;BME280;4328;48.622;9.230;2024-03-06T05:21:10;98138.38;;;4.84;100.00
8581;BME280;4328;48.622;9.230;2024-03-06T05:23:37;98134.00;;;4.83;100.00
8581;BME280;4328;48.622;9.230;2024-03-06T05:26:04;98145.41;;;4.85;100.00
8581;BME280;4328;48.622;9.230;2024-03-06T05:28:30;98133.59;;;4.78;100.00
8581;BME280;4328;48.622;9.230;2024-03-06T05:30:58;98137.66;;;4.82;100.00
8581;BME280;4328;48.622;9.230;2024-03-06T05:33:26;98142.06;;;4.83;100.00
8581;BME280;4328;48.622;9.230;2024-03-06T05:35:53;98145.41;;;4.85;100.00
8581;BME280;4328;48.622;9.230;2024-03-06T05:38:21;98118.91;;;4.72;100.00
8581;BME280;4328;48.622;9.230;2024-03-06T05:40:47;98149.63;;;4.87;100.00
8581;BME280;4328;48.622;9.230;2024-03-06T05:43:14;98143.97;;;4.90;100.00
8581;BME280;4328;48.622;9.230;2024-03-06T05:45:41;98153.03;;;4.89;100.00
8581;BME280;4328;48.622;9.230;2024-03-06T05:48:09;98147.34;;;4.92;100.00
8581;BME280;4328;48.622;9.230;2024-03-06T05:50:35;98155.41;;;4.92;100.00
8581;BME280;4328;48.622;9.230;2024-03-06T05:53:02;98162.63;;;4.92;100.00
8581;BME280;4328;48.622;9.230;2024-03-06T05:55:28;98158.41;;;4.89;100.00
8581;BME280;4328;48.622;9.230;2024-03-06T05:57:55;98169.16;;;4.89;100.00
8581;BME280;4328;48.622;9.230;2024-03-06T06:00:21;98167.44;;;4.88;100.00
8581;BME280;4328;48.622;9.230;2024-03-06T06:02:48;98171.44;;;4.84;100.00
8581;BME280;4328;48.622;9.230;2024-03-06T06:05:16;98168.59;;;4.86;100.00
8581;BME280;4328;48.622;9.230;2024-03-06T06:07:45;98174.97;;;4.85;100.00
8581;BME280;4328;48.622;9.230;2024-03-06T06:10:12;98185.88;;;4.83;100.00
8581;BME280;4328;48.622;9.230;2024-03-06T06:12:38;98190.09;;;4.86;100.00
8581;BME280;4328;48.622;9.230;2024-03-06T06:15:07;98189.09;;;4.87;100.00
8581;BME280;4328;48.622;9.230;2024-03-06T06:17:33;98193.19;;;4.91;100.00
8581;BME280;4328;48.622;9.230;2024-03-06T06:20:00;98198.41;;;4.92;100.00
8581;BME280;4328;48.622;9.230;2024-03-06T06:22:28;98204.47;;;4.94;100.00
8581;BME280;4328;48.622;9.230;2024-03-06T06:24:55;98203.50;;;4.95;100.00
8581;BME280;4328;48.622;9.230;2024-03-06T06:27:22;98200.47;;;4.98;100.00
8581;BME280;4328;48.622;9.230;2024-03-06T06:29:50;98200.88;;;5.03;100.00
8581;BME280;4328;48.622;9.230;2024-03-06T06:32:18;98209.19;;;5.10;100.00
8581;BME280;4328;48.622;9.230;2024-03-06T06:34:45;98206.19;;;5.13;100.00
8581;BME280;4328;48.622;9.230;2024-03-06T06:37:12;98208.59;;;5.16;100.00
8581;BME280;4328;48.622;9.230;2024-03-06T06:39:41;98212.81;;;5.19;100.00
8581;BME280;4328;48.622;9.230;2024-03-06T06:42:08;98207.81;;;5.24;100.00
8581;BME280;4328;48.622;9.230;2024-03-06T06:44:36;98215.59;;;5.27;100.00
8581;BME280;4328;48.622;9.230;2024-03-06T06:47:02;98211.34;;;5.24;100.00
8581;BME280;4328;48.622;9.230;2024-03-06T06:49:29;98215.59;;;5.27;100.00
8581;BME280;4328;48.622;9.230;2024-03-06T06:51:55;98219.28;;;5.26;100.00
8581;BME280;4328;48.622;9.230;2024-03-06T06:54:22;98212.97;;;5.35;100.00
8581;BME280;4328;48.622;9.230;2024-03-06T06:56:50;98217.06;;;5.39;100.00
8581;BME280;4328;48.622;9.230;2024-03-06T06:59:16;98215.22;;;5.39;100.00
8581;BME280;4328;48.622;9.230;2024-03-06T07:01:45;98220.50;;;5.49;100.00
8581;BME280;4328;48.622;9.230;2024-03-06T07:04:11;98212.66;;;5.56;100.00
8581;BME280;4328;48.622;9.230;2024-03-06T07:06:38;98218.66;;;5.67;100.00
8581;BME280;4328;48.622;9.230;2024-03-06T07:09:05;98220.06;;;5.71;100.00
8581;BME280;4328;48.622;9.230;2024-03-06T07:11:34;98227.66;;;5.76;100.00
8581;BME280;4328;48.622;9.230;2024-03-06T07:14:02;98222.28;;;5.76;100.00
8581;BME280;4328;48.622;9.230;2024-03-06T07:16:29;98222.44;;;5.74;100.00
8581;BME280;4328;48.622;9.230;2024-03-06T07:18:55;98223.97;;;5.77;100.00
8581;BME280;4328;48.622;9.230;2024-03-06T07:21:22;98224.50;;;5.80;100.00
8581;BME280;4328;48.622;9.230;2024-03-06T07:23:49;98226.19;;;5.81;100.00
8581;BME280;4328;48.622;9.230;2024-03-06T07:26:15;98229.44;;;5.85;100.00
8581;BME280;4328;48.622;9.230;2024-03-06T07:28:42;98230.97;;;5.88;100.00
8581;BME280;4328;48.622;9.230;2024-03-06T07:31:10;98229.00;;;5.90;100.00
8581;BME280;4328;48.622;9.230;2024-03-06T07:33:36;98231.22;;;5.94;100.00
8581;BME280;4328;48.622;9.230;2024-03-06T07:36:04;98237.19;;;6.06;100.00
8581;BME280;4328;48.622;9.230;2024-03-06T07:38:31;98208.06;;;6.01;100.00
8581;BME280;4328;48.622;9.230;2024-03-06T07:40:57;98239.72;;;6.25;100.00
8581;BME280;4328;48.622;9.230;2024-03-06T07:43:24;98247.78;;;6.25;100.00
8581;BME280;4328;48.622;9.230;2024-03-06T07:45:51;98244.59;;;6.30;100.00
8581;BME280;4328;48.622;9.230;2024-03-06T07:48:20;98245.16;;;6.33;100.00
8581;BME280;4328;48.622;9.230;2024-03-06T07:50:46;98246.34;;;6.39;100.00
8581;BME280;4328;48.622;9.230;2024-03-06T07:53:13;98253.31;;;6.49;100.00
8581;BME280;4328;48.622;9.230;2024-03-06T07:55:41;98250.72;;;6.66;100.00
8581;BME280;4328;48.622;9.230;2024-03-06T07:58:10;98238.78;;;6.68;100.00
8581;BME280;4328;48.622;9.230;2024-03-06T08:00:38;98252.88;;;6.88;100.00
8581;BME280;4328;48.622;9.230;2024-03-06T08:03:05;98245.50;;;6.98;100.00
8581;BME280;4328;48.622;9.230;2024-03-06T08:05:33;98249.44;;;7.12;100.00
8581;BME280;4328;48.622;9.230;2024-03-06T08:07:59;98247.28;;;7.23;100.00
8581;BME280;4328;48.622;9.230;2024-03-06T08:10:28;98260.44;;;7.27;100.00
8581;BME280;4328;48.622;9.230;2024-03-06T08:12:56;98258.75;;;7.17;100.00
8581;BME280;4328;48.622;9.230;2024-03-06T08:15:23;98266.31;;;7.22;100.00
8581;BME280;4328;48.622;9.230;2024-03-06T08:17:49;98266.19;;;7.32;100.00
8581;BME280;4328;48.622;9.230;2024-03-06T08:20:17;98270.28;;;7.44;100.00
8581;BME280;4328;48.622;9.230;2024-03-06T08:22:45;98264.41;;;7.48;100.00
8581;BME280;4328;48.622;9.230;2024-03-06T08:25:12;98268.63;;;7.51;99.79
8581;BME280;4328;48.622;9.230;2024-03-06T08:27:40;98264.06;;;7.51;99.15
8581;BME280;4328;48.622;9.230;2024-03-06T08:30:08;98271.16;;;7.60;99.45
8581;BME280;4328;48.622;9.230;2024-03-06T08:32:35;98267.66;;;7.76;98.92
8581;BME280;4328;48.622;9.230;2024-03-06T08:35:02;98231.88;;;7.58;96.53
8581;BME280;4328;48.622;9.230;2024-03-06T08:37:31;98264.84;;;8.02;95.40
8581;BME280;4328;48.622;9.230;2024-03-06T08:39:59;98259.94;;;8.06;93.93
8581;BME280;4328;48.622;9.230;2024-03-06T08:42:27;98272.59;;;8.13;93.21
8581;BME280;4328;48.622;9.230;2024-03-06T08:44:53;98268.03;;;7.97;91.98
8581;BME280;4328;48.622;9.230;2024-03-06T08:47:20;98275.47;;;8.12;91.81
8581;BME280;4328;48.622;9.230;2024-03-06T08:49:46;98278.66;;;8.15;90.63
8581;BME280;4328;48.622;9.230;2024-03-06T08:52:13;98280.88;;;8.20;89.73
8581;BME280;4328;48.622;9.230;2024-03-06T08:54:40;98277.31;;;8.19;89.72
8581;BME280;4328;48.622;9.230;2024-03-06T08:57:09;98281.75;;;8.45;88.95
8581;BME280;4328;48.622;9.230;2024-03-06T08:59:36;98279.88;;;8.45;87.69
8581;BME280;4328;48.622;9.230;2024-03-06T09:02:12;98284.25;;;8.62;87.55
8581;BME280;4328;48.622;9.230;2024-03-06T09:04:39;98281.19;;;8.74;87.39
8581;BME280;4328;48.622;9.230;2024-03-06T09:07:06;98276.41;;;8.92;86.66
8581;BME280;4328;48.622;9.230;2024-03-06T09:09:33;98274.84;;;9.05;85.05
8581;BME280;4328;48.622;9.230;2024-03-06T09:12:00;98281.13;;;9.06;84.77
8581;BME280;4328;48.622;9.230;2024-03-06T09:14:28;98289.78;;;8.93;83.43
8581;BME280;4328;48.622;9.230;2024-03-06T09:16:54;98287.25;;;8.76;84.05
8581;BME280;4328;48.622;9.230;2024-03-06T09:19:21;98291.19;;;8.73;84.90
8581;BME280;4328;48.622;9.230;2024-03-06T09:21:48;98263.13;;;8.66;84.76
8581;BME280;4328;48.622;9.230;2024-03-06T09:24:14;98295.03;;;8.79;84.18
8581;BME280;4328;48.622;9.230;2024-03-06T09:26:41;98296.22;;;8.76;84.88
8581;BME280;4328;48.622;9.230;2024-03-06T09:29:07;98297.41;;;8.65;85.22
8581;BME280;4328;48.622;9.230;2024-03-06T09:31:36;98304.88;;;8.55;84.85
8581;BME280;4328;48.622;9.230;2024-03-06T09:34:03;98306.03;;;8.53;84.63
8581;BME280;4328;48.622;9.230;2024-03-06T09:36:29;98310.63;;;8.60;85.55
8581;BME280;4328;48.622;9.230;2024-03-06T09:38:58;98312.28;;;8.53;84.55
8581;BME280;4328;48.622;9.230;2024-03-06T09:41:25;98308.91;;;8.51;84.78
8581;BME280;4328;48.622;9.230;2024-03-06T09:43:51;98318.72;;;8.36;85.68
8581;BME280;4328;48.622;9.230;2024-03-06T09:46:18;98316.66;;;8.30;85.95
8581;BME280;4328;48.622;9.230;2024-03-06T09:48:47;98285.06;;;7.98;86.23
8581;BME280;4328;48.622;9.230;2024-03-06T09:51:13;98312.44;;;8.11;87.05
8581;BME280;4328;48.622;9.230;2024-03-06T09:53:40;98312.75;;;8.08;87.43
8581;BME280;4328;48.622;9.230;2024-03-06T09:56:08;98303.63;;;7.93;87.93
8581;BME280;4328;48.622;9.230;2024-03-06T09:58:35;98322.34;;;7.94;88.38
8581;BME280;4328;48.622;9.230;2024-03-06T10:01:02;98273.03;;;7.60;88.50
8581;BME280;4328;48.622;9.230;2024-03-06T10:03:32;98318.28;;;7.82;89.75
8581;BME280;4328;48.622;9.230;2024-03-06T10:06:00;98319.34;;;7.97;89.82
8581;BME280;4328;48.622;9.230;2024-03-06T10:08:27;98325.41;;;8.16;89.52
8581;BME280;4328;48.622;9.230;2024-03-06T10:10:53;98321.91;;;8.23;88.33
8581;BME280;4328;48.622;9.230;2024-03-06T10:13:23;98325.81;;;8.37;87.65
8581;BME280;4328;48.622;9.230;2024-03-06T10:15:56;98323.75;;;8.31;86.76
8581;BME280;4328;48.622;9.230;2024-03-06T10:18:26;98327.34;;;8.31;86.92
8581;BME280;4328;48.622;9.230;2024-03-06T10:20:53;98302.31;;;8.21;86.66
8581;BME280;4328;48.622;9.230;2024-03-06T10:23:21;98330.84;;;8.24;85.89
8581;BME280;4328;48.622;9.230;2024-03-06T10:25:49;98311.06;;;8.07;85.39
8581;BME280;4328;48.622;9.230;2024-03-06T10:28:18;98326.00;;;8.36;85.37
8581;BME280;4328;48.622;9.230;2024-03-06T10:30:45;98325.97;;;8.52;85.43
8581;BME280;4328;48.622;9.230;2024-03-06T10:33:13;98324.78;;;8.62;84.99
8581;BME280;4328;48.622;9.230;2024-03-06T10:35:40;98333.75;;;8.71;85.24
8581;BME280;4328;48.622;9.230;2024-03-06T10:38:08;98322.41;;;8.76;85.12
8581;BME280;4328;48.622;9.230;2024-03-06T10:40:38;98333.91;;;8.78;84.95
8581;BME280;4328;48.622;9.230;2024-03-06T10:43:07;98331.03;;;8.71;84.29
8581;BME280;4328;48.622;9.230;2024-03-06T10:45:40;98326.97;;;8.67;84.61
8581;BME280;4328;48.622;9.230;2024-03-06T10:48:08;98332.38;;;8.67;84.96
8581;BME280;4328;48.622;9.230;2024-03-06T10:50:38;98329.34;;;8.70;84.58
8581;BME280;4328;48.622;9.230;2024-03-06T10:53:08;98326.47;;;8.72;84.39
8581;BME280;4328;48.622;9.230;2024-03-06T10:55:37;98329.84;;;8.74;84.12
8581;BME280;4328;48.622;9.230;2024-03-06T10:58:05;98332.75;;;8.72;84.49
8581;BME280;4328;48.622;9.230;2024-03-06T11:00:34;98339.66;;;8.66;84.21
8581;BME280;4328;48.622;9.230;2024-03-06T11:03:05;98338.66;;;8.59;84.19
8581;BME280;4328;48.622;9.230;2024-03-06T11:05:34;98344.06;;;8.59;84.89
8581;BME280;4328;48.622;9.230;2024-03-06T11:08:01;98340.00;;;8.72;84.75
8581;BME280;4328;48.622;9.230;2024-03-06T11:10:32;98335.25;;;8.74;84.58
8581;BME280;4328;48.622;9.230;2024-03-06T11:13:00;98340.81;;;8.80;85.09
8581;BME280;4328;48.622;9.230;2024-03-06T11:15:28;98327.16;;;8.65;84.67
8581;BME280;4328;48.622;9.230;2024-03-06T11:17:55;98344.53;;;8.79;84.74
8581;BME280;4328;48.622;9.230;2024-03-06T11:20:21;98339.00;;;8.73;84.55
8581;BME280;4328;48.622;9.230;2024-03-06T11:23:03;98340.31;;;8.77;84.79
8581;BME280;4328;48.622;9.230;2024-03-06T11:26:01;98344.88;;;8.76;84.18
8581;BME280;4328;48.622;9.230;2024-03-06T11:28:30;98339.13;;;8.63;85.05
8581;BME280;4328;48.622;9.230;2024-03-06T11:30:59;98348.09;;;8.55;85.44
8581;BME280;4328;48.622;9.230;2024-03-06T11:33:34;98344.56;;;8.47;85.91
8581;BME280;4328;48.622;9.230;2024-03-06T11:36:16;98343.91;;;8.37;86.23
8581;BME280;4328;48.622;9.230;2024-03-06T11:38:47;98339.81;;;8.24;86.55
8581;BME280;4328;48.622;9.230;2024-03-06T11:41:14;98344.00;;;8.11;87.29
8581;BME280;4328;48.622;9.230;2024-03-06T11:43:45;98347.66;;;7.93;88.47
8581;BME280;4328;48.622;9.230;2024-03-06T11:46:15;98330.72;;;7.67;88.95
8581;BME280;4328;48.622;9.230;2024-03-06T11:48:42;98344.25;;;7.83;89.57
8581;BME280;4328;48.622;9.230;2024-03-06T11:51:10;98350.34;;;7.85;89.33
8581;BME280;4328;48.622;9.230;2024-03-06T11:53:37;98341.25;;;7.86;89.57
8581;BME280;4328;48.622;9.230;2024-03-06T11:56:05;98337.22;;;7.90;89.93
8581;BME280;4328;48.622;9.230;2024-03-06T11:58:33;98345.66;;;7.95;89.93
8581;BME280;4328;48.622;9.230;2024-03-06T12:01:01;98348.03;;;7.98;90.13
8581;BME280;4328;48.622;9.230;2024-03-06T12:03:30;98343.31;;;8.01;90.15
8581;BME280;4328;48.622;9.230;2024-03-06T12:05:57;98350.72;;;8.15;89.69
8581;BME280;4328;48.622;9.230;2024-03-06T12:08:24;98349.22;;;8.12;88.42
8581;BME280;4328;48.622;9.230;2024-03-06T12:10:50;98340.13;;;8.13;88.25
8581;BME280;4328;48.622;9.230;2024-03-06T12:13:20;98343.00;;;8.20;88.73
8581;BME280;4328;48.622;9.230;2024-03-06T12:15:47;98347.59;;;8.36;88.39
8581;BME280;4328;48.622;9.230;2024-03-06T12:18:16;98336.78;;;8.52;88.14
8581;BME280;4328;48.622;9.230;2024-03-06T12:20:43;98348.94;;;8.64;87.58
8581;BME280;4328;48.622;9.230;2024-03-06T12:23:19;98347.09;;;8.64;87.33
8581;BME280;4328;48.622;9.230;2024-03-06T12:25:46;98338.47;;;8.69;87.06
8581;BME280;4328;48.622;9.230;2024-03-06T12:28:12;98339.13;;;8.79;86.42
8581;BME280;4328;48.622;9.230;2024-03-06T12:30:41;98336.94;;;8.75;86.95
8581;BME280;4328;48.622;9.230;2024-03-06T12:33:09;98345.56;;;8.62;86.39
8581;BME280;4328;48.622;9.230;2024-03-06T12:35:41;98345.06;;;8.50;86.73
8581;BME280;4328;48.622;9.230;2024-03-06T12:38:14;98350.78;;;8.39;87.24
8581;BME280;4328;48.622;9.230;2024-03-06T12:40:41;98348.78;;;8.33;87.88
8581;BME280;4328;48.622;9.230;2024-03-06T12:43:07;98346.38;;;8.30;87.94
8581;BME280;4328;48.622;9.230;2024-03-06T12:45:34;98342.66;;;8.31;88.68
8581;BME280;4328;48.622;9.230;2024-03-06T12:48:01;98347.09;;;8.32;88.85
8581;BME280;4328;48.622;9.230;2024-03-06T12:50:30;98346.69;;;8.11;88.92
8581;BME280;4328;48.622;9.230;2024-03-06T12:52:58;98350.03;;;8.05;88.28
8581;BME280;4328;48.622;9.230;2024-03-06T12:55:24;98346.00;;;8.09;89.51
8581;BME280;4328;48.622;9.230;2024-03-06T12:57:51;98336.91;;;8.18;89.85
8581;BME280;4328;48.622;9.230;2024-03-06T13:00:19;98340.28;;;8.28;89.56
8581;BME280;4328;48.622;9.230;2024-03-06T13:02:45;98338.28;;;8.22;89.08
8581;BME280;4328;48.622;9.230;2024-03-06T13:05:12;98333.72;;;8.30;89.09
8581;BME280;4328;48.622;9.230;2024-03-06T13:07:39;98332.34;;;8.26;88.59
8581;BME280;4328;48.622;9.230;2024-03-06T13:10:09;98336.56;;;8.29;88.80
8581;BME280;4328;48.622;9.230;2024-03-06T13:12:36;98316.16;;;8.10;88.93
8581;BME280;4328;48.622;9.230;2024-03-06T13:15:04;98333.53;;;8.16;88.39
8581;BME280;4328;48.622;9.230;2024-03-06T13:17:32;98336.22;;;8.16;89.00
8581;BME280;4328;48.622;9.230;2024-03-06T13:19:59;98340.78;;;7.99;88.94
8581;BME280;4328;48.622;9.230;2024-03-06T13:22:25;98331.81;;;7.90;89.45
8581;BME280;4328;48.622;9.230;2024-03-06T13:24:51;98304.31;;;7.87;89.76
8581;BME280;4328;48.622;9.230;2024-03-06T13:27:19;98333.84;;;8.05;89.99
8581;BME280;4328;48.622;9.230;2024-03-06T13:29:45;98327.09;;;8.09;90.34